Time;durP1;ratioP1;P1;durP2;ratioP2;P2;SDS_P1;SDS_P2;PMS_P1;PMS_P2;Temp;Humidity;BMP_temperature;BMP_pressure;BME280_temperature;BME280_humidity;BME280_pressure;Samples;Min_cycle;Max_cycle;Signal;HPM_P1;HPM_P2
2023/09/04 00:00:43;;;;;;;6.28;3.83;;;18.30;99.90;;;;;;5063793;28;20323;-73
2023/09/04 00:03:08;;;;;;;5.68;4.15;;;18.00;99.90;;;;;;5031822;28;20177;-73
2023/09/04 00:05:34;;;;;;;5.28;3.70;;;18.00;99.90;;;;;;5031751;28;20170;-73
2023/09/04 00:08:01;;;;;;;7.60;4.20;;;;;;;;;;5031535;28;20252;-73
2023/09/04 00:10:26;;;;;;;6.45;4.07;;;18.00;99.90;;;;;;5031618;28;20174;-73
2023/09/04 00:12:52;;;;;;;5.43;3.85;;;17.90;99.90;;;;;;5031617;28;20231;-73
2023/09/04 00:15:18;;;;;;;6.13;3.67;;;;;;;;;;5033473;28;20186;-73
2023/09/04 00:17:49;;;;;;;7.30;4.30;;;18.00;99.90;;;;;;5041759;28;20273;-73
2023/09/04 00:20:15;;;;;;;5.90;3.58;;;18.00;99.90;;;;;;5037244;28;20185;-73
2023/09/04 00:22:41;;;;;;;7.70;4.43;;;17.90;99.90;;;;;;5051374;28;20173;-73
2023/09/04 00:25:06;;;;;;;7.10;4.07;;;17.80;99.90;;;;;;5039924;28;20224;-73
2023/09/04 00:27:32;;;;;;;5.82;3.97;;;17.80;99.90;;;;;;5031239;28;20259;-73
2023/09/04 00:29:58;;;;;;;9.38;4.00;;;18.00;99.90;;;;;;5044173;28;20257;-73
2023/09/04 00:32:23;;;;;;;9.35;4.28;;;17.90;99.90;;;;;;5048856;28;20279;-73
2023/09/04 00:34:49;;;;;;;7.18;4.20;;;17.90;99.90;;;;;;5039186;28;20191;-73
2023/09/04 00:37:14;;;;;;;6.85;4.30;;;17.90;99.90;;;;;;5049925;28;20534;-73
2023/09/04 00:39:40;;;;;;;8.98;4.18;;;17.90;99.90;;;;;;5051056;28;20659;-73
2023/09/04 00:42:06;;;;;;;5.95;4.00;;;17.60;99.90;;;;;;5050814;28;20220;-73
2023/09/04 00:44:32;;;;;;;5.82;3.78;;;17.80;99.90;;;;;;5040011;28;20295;-73
2023/09/04 00:46:59;;;;;;;7.30;4.10;;;17.70;99.90;;;;;;5031100;28;20696;-73
2023/09/04 00:49:26;;;;;;;7.07;4.10;;;17.80;99.90;;;;;;5031049;28;20189;-73
2023/09/04 00:51:53;;;;;;;5.80;4.15;;;17.70;99.90;;;;;;5041270;28;20175;-73
2023/09/04 00:54:19;;;;;;;6.38;4.07;;;17.60;99.90;;;;;;5050820;28;20639;-72
2023/09/04 00:56:47;;;;;;;7.13;4.35;;;17.80;99.90;;;;;;5050733;28;20168;-72
2023/09/04 00:59:12;;;;;;;5.00;3.83;;;17.80;99.90;;;;;;5049609;28;20169;-72
2023/09/04 01:01:39;;;;;;;8.90;4.32;;;17.80;99.90;;;;;;5050922;28;20234;-71
2023/09/04 01:04:04;;;;;;;5.88;4.25;;;17.80;99.90;;;;;;5049436;28;20670;-73
2023/09/04 01:06:30;;;;;;;7.40;4.20;;;17.80;99.90;;;;;;5050754;28;20295;-72
2023/09/04 01:08:56;;;;;;;8.93;4.00;;;17.80;99.90;;;;;;5050634;28;20172;-73
2023/09/04 01:11:26;;;;;;;5.95;4.20;;;17.70;99.90;;;;;;5049330;28;20174;-73
2023/09/04 01:13:54;;;;;;;5.70;4.38;;;17.60;99.90;;;;;;5050937;28;20256;-73
2023/09/04 01:16:22;;;;;;;5.20;4.18;;;17.70;99.90;;;;;;5050535;28;20161;-73
2023/09/04 01:18:48;;;;;;;6.05;3.92;;;17.60;99.90;;;;;;5049390;28;20237;-73
2023/09/04 01:21:14;;;;;;;7.57;4.05;;;17.70;99.90;;;;;;5049449;28;20242;-73
2023/09/04 01:23:39;;;;;;;6.88;4.28;;;17.70;99.90;;;;;;5050477;28;20656;-73
2023/09/04 01:26:30;;;;;;;8.52;3.70;;;17.70;99.90;;;;;;5050366;28;20167;-73
2023/09/04 01:29:14;;;;;;;7.00;3.83;;;17.70;99.90;;;;;;5049256;28;20185;-73
2023/09/04 01:31:43;;;;;;;6.72;3.60;;;17.70;99.90;;;;;;5050433;28;20223;-73
2023/09/04 01:34:14;;;;;;;7.55;3.80;;;17.30;99.90;;;;;;5050502;28;20236;-73
2023/09/04 01:36:40;;;;;;;7.50;3.55;;;17.40;99.90;;;;;;5049019;28;20165;-72
2023/09/04 01:39:06;;;;;;;6.38;3.90;;;17.50;99.90;;;;;;5047192;28;20208;-72
2023/09/04 01:41:32;;;;;;;6.00;4.00;;;17.30;99.90;;;;;;5030507;28;20201;-72
2023/09/04 01:43:58;;;;;;;6.68;3.85;;;17.40;99.90;;;;;;5034186;28;20692;-72
2023/09/04 01:46:24;;;;;;;8.20;4.05;;;17.10;99.90;;;;;;5042199;28;20233;-72
2023/09/04 01:48:49;;;;;;;6.35;3.65;;;17.20;99.90;;;;;;5050292;28;20264;-72
2023/09/04 01:51:15;;;;;;;5.03;3.50;;;17.20;99.90;;;;;;5050214;28;20173;-72
2023/09/04 01:53:42;;;;;;;6.72;3.67;;;17.20;99.90;;;;;;5048894;28;20204;-72
2023/09/04 01:56:08;;;;;;;5.15;3.63;;;17.20;99.90;;;;;;5050364;28;20185;-71
2023/09/04 01:58:34;;;;;;;5.75;3.95;;;17.20;99.90;;;;;;5050227;28;20169;-72
2023/09/04 02:01:00;;;;;;;5.22;3.67;;;;;;;;;;5050254;28;20260;-73
2023/09/04 02:03:25;;;;;;;6.25;3.95;;;17.20;99.90;;;;;;5052511;28;20263;-72
2023/09/04 02:05:51;;;;;;;4.85;3.47;;;17.20;99.90;;;;;;5053934;28;20240;-72
2023/09/04 02:08:17;;;;;;;4.63;3.65;;;17.20;99.90;;;;;;5053800;28;20208;-72
2023/09/04 02:10:43;;;;;;;10.07;3.92;;;17.20;99.90;;;;;;5053984;28;20531;-74
2023/09/04 02:13:09;;;;;;;4.78;3.50;;;;;;;;;;5053832;28;20663;-72
2023/09/04 02:15:36;;;;;;;7.93;4.07;;;17.20;99.90;;;;;;5053661;28;20207;-75
2023/09/04 02:18:02;;;;;;;7.95;3.78;;;17.30;99.90;;;;;;5053692;28;20235;-73
2023/09/04 02:20:29;;;;;;;4.65;3.45;;;17.30;99.90;;;;;;5053811;28;20181;-73
2023/09/04 02:22:55;;;;;;;4.82;3.60;;;17.30;99.90;;;;;;5053941;28;20538;-73
2023/09/04 02:25:20;;;;;;;7.50;3.75;;;17.30;99.90;;;;;;5053774;28;20679;-74
2023/09/04 02:27:46;;;;;;;5.50;3.60;;;17.30;99.90;;;;;;5053558;28;20258;-73
2023/09/04 02:30:12;;;;;;;5.75;3.88;;;17.20;99.90;;;;;;5053498;28;20238;-73
2023/09/04 02:32:37;;;;;;;5.65;3.80;;;17.30;99.90;;;;;;5053433;28;20212;-73
2023/09/04 02:35:03;;;;;;;6.25;3.40;;;17.20;99.90;;;;;;5046555;28;20194;-73
2023/09/04 02:37:29;;;;;;;7.00;3.85;;;17.00;99.90;;;;;;5035838;28;20208;-73
2023/09/04 02:39:55;;;;;;;5.25;3.67;;;17.10;99.90;;;;;;5044344;28;20169;-73
2023/09/04 02:42:20;;;;;;;4.80;3.45;;;17.10;99.90;;;;;;5052821;28;20239;-73
2023/09/04 02:44:46;;;;;;;5.57;3.78;;;17.00;99.90;;;;;;5051689;28;20173;-73
2023/09/04 02:47:11;;;;;;;8.93;4.20;;;17.00;99.90;;;;;;5048569;28;20205;-73
2023/09/04 02:49:37;;;;;;;9.05;4.07;;;16.90;99.90;;;;;;5045613;28;20170;-73
2023/09/04 02:52:03;;;;;;;6.35;3.88;;;16.90;99.90;;;;;;5053090;28;20180;-73
2023/09/04 02:54:29;;;;;;;5.20;3.85;;;16.80;99.90;;;;;;5052852;28;20173;-73
2023/09/04 02:56:55;;;;;;;6.13;4.47;;;16.80;99.90;;;;;;5035932;28;20186;-73
2023/09/04 02:59:20;;;;;;;8.45;3.90;;;16.90;99.90;;;;;;5034112;28;20189;-73
2023/09/04 03:01:49;;;;;;;5.03;3.72;;;16.70;99.90;;;;;;5041971;28;20178;-73
2023/09/04 03:04:16;;;;;;;5.97;3.78;;;16.70;99.90;;;;;;5051410;28;20592;-73
2023/09/04 03:06:42;;;;;;;5.68;3.90;;;16.60;99.90;;;;;;5052535;28;20205;-73
2023/09/04 03:09:07;;;;;;;5.38;3.90;;;17.20;99.90;;;;;;5040019;28;20526;-73
2023/09/04 03:11:33;;;;;;;6.57;4.25;;;16.40;99.90;;;;;;5052808;28;20161;-73
2023/09/04 03:13:59;;;;;;;11.98;4.13;;;16.60;99.90;;;;;;5041212;28;20186;-73
2023/09/04 03:16:25;;;;;;;6.10;4.00;;;16.50;99.90;;;;;;5032533;28;20213;-72
2023/09/04 03:18:51;;;;;;;7.65;4.70;;;16.80;99.90;;;;;;5049987;28;20250;-73
2023/09/04 03:21:16;;;;;;;8.38;4.13;;;16.50;99.90;;;;;;5042197;28;20660;-73
2023/09/04 03:23:42;;;;;;;5.38;4.00;;;16.70;99.90;;;;;;5052245;28;20181;-72
2023/09/04 03:26:08;;;;;;;8.88;3.90;;;16.60;99.90;;;;;;5052121;28;20659;-73
2023/09/04 03:28:33;;;;;;;7.90;4.18;;;16.50;99.90;;;;;;5051995;28;20223;-73
2023/09/04 03:30:59;;;;;;;6.97;4.13;;;16.50;99.90;;;;;;5046342;28;20227;-73
2023/09/04 03:33:24;;;;;;;6.60;4.35;;;16.50;99.90;;;;;;5051112;28;20239;-73
2023/09/04 03:35:50;;;;;;;5.65;3.95;;;16.50;99.90;;;;;;5032548;28;20641;-73
2023/09/04 03:38:16;;;;;;;7.90;4.00;;;16.50;99.90;;;;;;5033351;28;20181;-72
2023/09/04 03:40:42;;;;;;;7.07;3.97;;;16.50;99.90;;;;;;5051274;28;20260;-72
2023/09/04 03:43:07;;;;;;;7.75;4.03;;;16.40;99.90;;;;;;5051906;28;20220;-73
2023/09/04 03:45:34;;;;;;;7.55;4.40;;;16.40;99.90;;;;;;5051533;28;20642;-74
2023/09/04 03:48:00;;;;;;;7.47;4.60;;;16.50;99.90;;;;;;5050676;28;20286;-72
2023/09/04 03:50:26;;;;;;;7.00;4.18;;;16.30;99.90;;;;;;5051894;28;20644;-73
2023/09/04 03:52:52;;;;;;;7.82;4.20;;;;;;;;;;5051854;28;20173;-72
2023/09/04 03:55:17;;;;;;;8.60;4.22;;;16.50;99.90;;;;;;5051748;28;20250;-72
2023/09/04 03:57:46;;;;;;;7.45;4.68;;;16.40;99.90;;;;;;5051582;28;20181;-72
2023/09/04 04:00:16;;;;;;;7.68;4.70;;;16.50;99.90;;;;;;5051758;28;20219;-71
2023/09/04 04:02:43;;;;;;;10.98;4.35;;;16.50;99.90;;;;;;5051516;28;20256;-73
2023/09/04 04:05:11;;;;;;;10.45;4.53;;;16.40;99.90;;;;;;5051625;28;20184;-72
2023/09/04 04:07:37;;;;;;;6.63;5.20;;;16.60;99.90;;;;;;5051573;28;20226;-72
2023/09/04 04:10:05;;;;;;;7.25;4.97;;;16.60;99.90;;;;;;5051731;28;20252;-72
2023/09/04 04:12:31;;;;;;;8.40;4.78;;;16.20;99.90;;;;;;5051630;28;20165;-72
2023/09/04 04:14:58;;;;;;;6.53;4.60;;;16.60;99.90;;;;;;5051581;28;20175;-73
2023/09/04 04:17:26;;;;;;;6.53;4.22;;;16.60;99.90;;;;;;5051468;28;20173;-73
2023/09/04 04:19:53;;;;;;;7.68;4.55;;;16.40;99.90;;;;;;5051426;28;20181;-73
2023/09/04 04:22:23;;;;;;;7.18;4.03;;;16.40;99.90;;;;;;5051582;28;20173;-73
2023/09/04 04:24:49;;;;;;;8.90;5.10;;;16.10;99.90;;;;;;5051375;28;20161;-73
2023/09/04 04:27:16;;;;;;;5.65;4.20;;;16.10;99.90;;;;;;5050011;28;20215;-75
2023/09/04 04:29:44;;;;;;;8.20;4.40;;;16.00;99.90;;;;;;5051629;28;20175;-72
2023/09/04 04:32:10;;;;;;;5.60;4.50;;;16.30;99.90;;;;;;5051356;28;20258;-72
2023/09/04 04:34:35;;;;;;;8.48;4.03;;;16.20;99.90;;;;;;5049920;28;20639;-72
2023/09/04 04:37:01;;;;;;;7.25;5.00;;;;;;;;;;5051382;28;20178;-72
2023/09/04 04:39:27;;;;;;;7.55;4.90;;;16.00;99.90;;;;;;5049888;28;20183;-72
2023/09/04 04:41:53;;;;;;;6.72;4.88;;;16.10;99.90;;;;;;5046981;28;20180;-73
2023/09/04 04:44:19;;;;;;;6.28;4.60;;;16.10;99.90;;;;;;5042562;28;20240;-71
2023/09/04 04:46:47;;;;;;;7.35;4.47;;;16.30;99.90;;;;;;5050808;28;20204;-71
2023/09/04 04:49:17;;;;;;;7.93;4.65;;;16.20;99.90;;;;;;5050872;28;20173;-71
2023/09/04 04:51:43;;;;;;;9.52;4.80;;;16.40;99.90;;;;;;5049769;28;20217;-72
2023/09/04 04:54:09;;;;;;;7.05;4.95;;;;;;;;;;5049788;28;20598;-72
2023/09/04 04:56:34;;;;;;;8.88;5.22;;;16.10;99.90;;;;;;5051136;28;20180;-72
2023/09/04 04:59:00;;;;;;;9.82;5.68;;;16.20;99.90;;;;;;5050889;28;20536;-72
2023/09/04 05:01:25;;;;;;;10.65;5.78;;;16.20;99.90;;;;;;5050944;28;20205;-72
2023/09/04 05:03:51;;;;;;;9.07;5.30;;;16.10;99.90;;;;;;5050909;28;20632;-72
2023/09/04 05:06:17;;;;;;;6.88;5.53;;;16.10;99.90;;;;;;5050744;28;20173;-72
2023/09/04 05:08:42;;;;;;;10.18;6.15;;;16.10;99.90;;;;;;5050856;28;20188;-72
2023/09/04 05:11:08;;;;;;;10.85;6.65;;;16.10;99.90;;;;;;5050706;28;20177;-72
2023/09/04 05:13:34;;;;;;;9.98;6.50;;;16.10;99.90;;;;;;5051029;28;20207;-71
2023/09/04 05:16:04;;;;;;;11.38;6.30;;;16.10;99.90;;;;;;5050751;28;20658;-72
2023/09/04 05:18:31;;;;;;;8.40;6.07;;;16.10;99.90;;;;;;5050785;28;20165;-71
2023/09/04 05:20:57;;;;;;;9.52;5.95;;;16.20;99.90;;;;;;5050681;28;20161;-72
2023/09/04 05:23:22;;;;;;;9.20;5.65;;;16.10;99.90;;;;;;5050670;28;20172;-71
2023/09/04 05:25:49;;;;;;;11.35;6.05;;;16.10;99.90;;;;;;5049319;28;20181;-71
2023/09/04 05:28:15;;;;;;;9.30;5.90;;;16.10;99.90;;;;;;5049238;28;20220;-71
2023/09/04 05:30:40;;;;;;;10.20;6.47;;;16.20;99.90;;;;;;5050683;28;20177;-71
2023/09/04 05:33:06;;;;;;;10.40;6.03;;;16.20;99.90;;;;;;5050578;28;20169;-71
2023/09/04 05:35:31;;;;;;;10.55;6.05;;;16.10;99.90;;;;;;5050652;28;20646;-71
2023/09/04 05:37:58;;;;;;;10.23;5.97;;;16.00;99.90;;;;;;5047545;28;20192;-72
2023/09/04 05:40:24;;;;;;;10.38;6.22;;;16.20;99.90;;;;;;5053378;28;20210;-73
2023/09/04 05:42:50;;;;;;;10.73;7.05;;;16.30;99.90;;;;;;5054416;28;20213;-72
2023/09/04 05:45:22;;;;;;;12.43;7.72;;;16.50;99.90;;;;;;5054390;28;20172;-72
2023/09/04 05:47:47;;;;;;;13.38;8.60;;;16.40;99.90;;;;;;5054280;28;20274;-72
2023/09/04 05:50:14;;;;;;;17.10;9.68;;;16.50;99.90;;;;;;5054344;28;20173;-73
2023/09/04 05:52:40;;;;;;;22.20;9.43;;;16.60;99.90;;;;;;5054199;28;20173;-72
2023/09/04 05:55:06;;;;;;;15.70;9.30;;;16.60;99.90;;;;;;5054401;28;20686;-73
2023/09/04 05:57:32;;;;;;;17.40;10.32;;;16.60;99.90;;;;;;5054218;28;20202;-73
2023/09/04 05:59:58;;;;;;;19.50;12.30;;;16.80;99.90;;;;;;5052914;28;20247;-72
2023/09/04 06:02:24;;;;;;;21.55;12.40;;;;;;;;;;5053762;28;20779;-73
2023/09/04 06:04:49;;;;;;;22.50;13.20;;;16.90;99.90;;;;;;5054039;28;20255;-72
2023/09/04 06:07:16;;;;;;;26.65;13.38;;;;;;;;;;5053913;28;20201;-73
2023/09/04 06:09:44;;;;;;;22.52;13.48;;;17.00;99.90;;;;;;5053965;28;20162;-73
2023/09/04 06:12:14;;;;;;;22.02;14.23;;;17.10;99.90;;;;;;5050419;28;20185;-73
2023/09/04 06:14:40;;;;;;;28.77;15.25;;;17.20;99.90;;;;;;5034245;28;20182;-73
2023/09/04 06:17:05;;;;;;;27.10;16.02;;;17.20;99.90;;;;;;5033887;28;20254;-73
2023/09/04 06:19:31;;;;;;;29.33;16.77;;;17.40;99.90;;;;;;5034436;28;20486;-73
2023/09/04 06:21:57;;;;;;;28.45;17.05;;;16.20;99.90;;;;;;5032758;28;20571;-73
2023/09/04 06:24:23;;;;;;;28.60;17.23;;;17.50;99.90;;;;;;5033981;28;20174;-72
2023/09/04 06:26:49;;;;;;;26.27;16.33;;;17.50;99.90;;;;;;5033697;28;20200;-73
2023/09/04 06:29:18;;;;;;;28.38;17.08;;;17.60;99.90;;;;;;5044389;28;20311;-73
2023/09/04 06:31:44;;;;;;;29.73;17.40;;;17.70;99.90;;;;;;5052118;28;20276;-73
2023/09/04 06:34:10;;;;;;;30.65;18.05;;;17.70;99.90;;;;;;5037299;28;20184;-73
2023/09/04 06:36:35;;;;;;;33.35;17.17;;;17.70;99.90;;;;;;5036291;28;20912;-74
2023/09/04 06:39:03;;;;;;;30.63;17.88;;;17.80;99.90;;;;;;5032070;28;20174;-73
2023/09/04 06:41:29;;;;;;;29.27;17.83;;;17.90;99.90;;;;;;5038752;28;20235;-72
2023/09/04 06:43:55;;;;;;;32.30;18.05;;;17.90;99.90;;;;;;5050037;28;20302;-74
2023/09/04 06:46:21;;;;;;;28.23;18.33;;;18.00;99.90;;;;;;5033596;28;20190;-73
2023/09/04 06:48:47;;;;;;;30.33;18.70;;;18.00;99.90;;;;;;5032348;28;20264;-74
2023/09/04 06:51:12;;;;;;;30.20;17.55;;;18.10;99.90;;;;;;5040794;28;20172;-75
2023/09/04 06:53:38;;;;;;;29.60;17.70;;;18.10;99.90;;;;;;5052839;28;20671;-74
2023/09/04 06:56:04;;;;;;;30.95;18.58;;;18.20;99.90;;;;;;5053015;28;20550;-73
2023/09/04 06:58:30;;;;;;;32.08;18.27;;;18.20;99.90;;;;;;5052806;28;20169;-73
2023/09/04 07:00:56;;;;;;;31.05;17.90;;;18.20;99.90;;;;;;5048294;28;20193;-74
2023/09/04 07:03:22;;;;;;;27.15;16.52;;;18.30;99.90;;;;;;5032680;28;20235;-74
2023/09/04 07:05:47;;;;;;;30.23;17.35;;;18.30;99.90;;;;;;5033142;28;20177;-75
2023/09/04 07:08:13;;;;;;;31.10;18.80;;;18.40;99.90;;;;;;5032694;28;20359;-75
2023/09/04 07:10:39;;;;;;;33.30;19.08;;;18.40;99.90;;;;;;5066019;28;20671;-74
2023/09/04 07:13:04;;;;;;;32.55;19.75;;;18.40;99.90;;;;;;5031346;28;20177;-75
2023/09/04 07:15:30;;;;;;;31.85;18.70;;;18.40;99.90;;;;;;5032494;28;20158;-75
2023/09/04 07:18:00;;;;;;;34.08;19.63;;;18.50;99.90;;;;;;5033876;28;20710;-74
2023/09/04 07:20:28;;;;;;;31.83;20.10;;;18.60;99.90;;;;;;5037090;28;20200;-74
2023/09/04 07:22:54;;;;;;;34.30;19.45;;;20.40;99.90;;;;;;5047469;28;20193;-73
2023/09/04 07:25:21;;;;;;;31.60;18.73;;;18.70;99.90;;;;;;5047452;28;20636;-74
2023/09/04 07:27:46;;;;;;;35.33;20.90;;;18.80;99.90;;;;;;5052027;28;20303;-73
2023/09/04 07:30:12;;;;;;;33.55;19.65;;;18.90;99.90;;;;;;5052273;28;20602;-74
2023/09/04 07:32:38;;;;;;;34.60;19.63;;;18.90;99.90;;;;;;5048857;28;20181;-76
2023/09/04 07:35:04;;;;;;;29.88;18.95;;;19.00;99.90;;;;;;5052051;28;20176;-74
2023/09/04 07:37:29;;;;;;;32.70;19.70;;;19.10;99.90;;;;;;5043280;28;20182;-74
2023/09/04 07:39:55;;;;;;;32.78;19.27;;;19.30;99.90;;;;;;5049348;28;20180;-74
2023/09/04 07:42:22;;;;;;;33.65;19.63;;;19.30;99.90;;;;;;5043051;28;20666;-74
2023/09/04 07:44:48;;;;;;;32.22;19.27;;;19.40;99.90;;;;;;5045926;28;20181;-75
2023/09/04 07:47:13;;;;;;;31.15;19.05;;;19.50;99.90;;;;;;5051612;28;20213;-75
2023/09/04 07:49:39;;;;;;;34.50;19.30;;;19.60;99.90;;;;;;5050487;28;20169;-74
2023/09/04 07:52:05;;;;;;;31.20;19.55;;;19.70;99.90;;;;;;5050347;28;20214;-74
2023/09/04 07:54:31;;;;;;;34.80;20.08;;;19.80;99.90;;;;;;5051772;28;20177;-75
2023/09/04 07:56:59;;;;;;;35.30;20.42;;;19.80;99.90;;;;;;5039195;28;20525;-75
2023/09/04 07:59:24;;;;;;;34.08;19.52;;;19.90;99.90;;;;;;5049482;28;20199;-74
2023/09/04 08:01:50;;;;;;;33.97;18.60;;;20.00;99.90;;;;;;5051287;28;20205;-74
2023/09/04 08:04:16;;;;;;;30.92;18.92;;;20.20;99.90;;;;;;5050439;28;20628;-73
2023/09/04 08:06:41;;;;;;;33.13;19.48;;;20.30;99.90;;;;;;5031571;28;20202;-73
2023/09/04 08:09:07;;;;;;;31.35;19.50;;;20.50;99.90;;;;;;5031217;28;20173;-73
2023/09/04 08:11:34;;;;;;;28.85;19.08;;;21.40;99.90;;;;;;5031235;28;20170;-73
2023/09/04 08:13:59;;;;;;;32.97;18.65;;;22.50;99.90;;;;;;5035787;28;20169;-73
2023/09/04 08:16:25;;;;;;;31.35;18.23;;;23.60;99.90;;;;;;5038931;28;20632;-74
2023/09/04 08:18:50;;;;;;;27.83;18.05;;;24.50;99.90;;;;;;5045817;28;20178;-74
2023/09/04 08:21:17;;;;;;;33.78;19.40;;;25.00;99.90;;;;;;5043148;28;20185;-74
2023/09/04 08:23:42;;;;;;;28.15;17.95;;;25.70;99.90;;;;;;5051222;28;20200;-74
2023/09/04 08:26:08;;;;;;;31.50;20.33;;;26.20;99.90;;;;;;5048899;28;20213;-74
2023/09/04 08:28:34;;;;;;;31.95;19.15;;;26.00;99.90;;;;;;5031792;28;20680;-74
2023/09/04 08:31:00;;;;;;;30.45;18.88;;;26.40;99.90;;;;;;5031258;28;20244;-74
2023/09/04 08:33:26;;;;;;;26.02;17.60;;;27.00;99.90;;;;;;5031324;28;20177;-74
2023/09/04 08:35:52;;;;;;;25.63;17.75;;;27.30;99.90;;;;;;5031990;28;20582;-73
2023/09/04 08:38:17;;;;;;;24.52;17.15;;;27.40;99.90;;;;;;5045611;28;20238;-73
2023/09/04 08:40:44;;;;;;;26.58;17.75;;;27.80;1.00;;;;;;5050577;28;20180;-73
2023/09/04 08:43:11;;;;;;;23.98;17.08;;;28.00;1.00;;;;;;5050581;28;20290;-74
2023/09/04 08:45:42;;;;;;;23.63;16.65;;;28.00;1.00;;;;;;5050737;28;20173;-74
2023/09/04 08:48:08;;;;;;;24.75;17.63;;;28.00;20.70;;;;;;5045844;28;20222;-73
2023/09/04 08:50:36;;;;;;;23.13;16.08;;;28.50;99.90;;;;;;5045086;28;20169;-73
2023/09/04 08:53:03;;;;;;;23.90;16.05;;;28.60;1.00;;;;;;5050618;28;20173;-73
2023/09/04 08:55:30;;;;;;;24.10;17.13;;;29.10;1.00;;;;;;5048862;28;20169;-74
2023/09/04 08:57:59;;;;;;;20.20;15.27;;;28.90;99.90;;;;;;5029635;28;20184;-74
2023/09/04 09:00:24;;;;;;;22.63;14.63;;;29.10;1.00;;;;;;5029295;28;20179;-74
2023/09/04 09:02:51;;;;;;;22.27;15.38;;;29.10;1.00;;;;;;5048434;28;20176;-74
2023/09/04 09:05:17;;;;;;;27.10;15.70;;;28.90;99.90;;;;;;5049208;28;20222;-74
2023/09/04 09:07:44;;;;;;;19.08;14.15;;;28.90;99.90;;;;;;5030726;28;20216;-73
2023/09/04 09:10:15;;;;;;;22.60;15.40;;;28.90;99.90;;;;;;5030498;28;20209;-75
2023/09/04 09:12:40;;;;;;;21.85;13.80;;;27.60;1.00;;;;;;5030126;28;20177;-74
2023/09/04 09:15:06;;;;;;;19.00;12.52;;;26.80;99.90;;;;;;5050604;28;20707;-74
2023/09/04 09:17:32;;;;;;;20.10;12.93;;;26.90;99.90;;;;;;5050466;28;20175;-75
2023/09/04 09:19:57;;;;;;;16.95;13.23;;;26.70;1.00;;;;;;5049222;28;20172;-74
2023/09/04 09:22:23;;;;;;;17.75;12.85;;;26.70;1.00;;;;;;5046795;28;20741;-73
2023/09/04 09:24:50;;;;;;;16.45;12.02;;;27.40;99.90;;;;;;5049896;28;20252;-74
2023/09/04 09:27:25;;;;;;;17.13;12.60;;;28.10;1.00;;;;;;5039381;28;20224;-74
2023/09/04 09:29:51;;;;;;;17.17;12.60;;;27.20;99.90;;;;;;5043001;28;20184;-73
2023/09/04 09:32:19;;;;;;;19.38;12.10;;;27.80;68.00;;;;;;5033737;28;20272;-74
2023/09/04 09:34:52;;;;;;;17.58;11.45;;;28.30;1.00;;;;;;5030499;28;20218;-73
2023/09/04 09:37:19;;;;;;;19.13;12.48;;;27.40;99.90;;;;;;5032224;28;20174;-73
2023/09/04 09:39:45;;;;;;;15.15;11.68;;;27.90;1.00;;;;;;5038794;28;20197;-73
2023/09/04 09:42:11;;;;;;;16.23;10.68;;;28.10;1.00;;;;;;5052303;28;20578;-74
2023/09/04 09:44:36;;;;;;;16.00;10.20;;;28.30;1.00;;;;;;5055696;28;20184;-74
2023/09/04 09:47:02;;;;;;;13.40;8.90;;;28.50;1.00;;;;;;5068241;28;20631;-74
2023/09/04 09:49:30;;;;;;;12.07;9.02;;;28.90;99.90;;;;;;5045586;28;20243;-74
2023/09/04 09:51:56;;;;;;;11.70;8.77;;;29.30;99.90;;;;;;5044809;28;20177;-74
2023/09/04 09:54:44;;;;;;;11.85;8.23;;;29.40;1.00;;;;;;5048333;28;20180;-75
2023/09/04 09:57:12;;;;;;;9.50;7.18;;;29.50;1.00;;;;;;5032131;28;20217;-74
2023/09/04 09:59:46;;;;;;;10.55;6.38;;;29.80;1.00;;;;;;5049118;28;20640;-74
2023/09/04 10:02:20;;;;;;;8.68;5.45;;;30.20;1.00;;;;;;5050099;28;20247;-74
2023/09/04 10:04:46;;;;;;;5.88;5.28;;;30.60;1.00;;;;;;5032188;28;20205;-73
2023/09/04 10:07:20;;;;;;;9.32;4.88;;;29.70;99.90;;;;;;5047652;28;20236;-73
2023/09/04 10:09:51;;;;;;;6.35;4.68;;;30.00;99.90;;;;;;5050208;28;20168;-74
2023/09/04 10:12:49;;;;;;;6.38;4.03;;;30.30;99.90;;;;;;5049494;28;20192;-74
2023/09/04 10:15:22;;;;;;;4.65;4.20;;;30.70;99.90;;;;;;5046933;28;20219;-74
2023/09/04 10:18:00;;;;;;;6.03;4.22;;;30.80;99.90;;;;;;5078985;28;20185;-74
2023/09/04 10:20:27;;;;;;;4.93;4.20;;;31.30;15.00;;;;;;5038893;28;20176;-74
2023/09/04 10:23:02;;;;;;;5.85;4.25;;;30.10;99.90;;;;;;5034195;28;20204;-74
2023/09/04 10:25:49;;;;;;;8.15;3.85;;;30.40;99.90;;;;;;5033651;28;20168;-74
2023/09/04 10:28:39;;;;;;;5.25;3.83;;;31.10;98.50;;;;;;5047570;28;20212;-74
2023/09/04 10:31:06;;;;;;;7.72;3.90;;;30.50;99.90;;;;;;5051283;28;20199;-73
2023/09/04 10:33:32;;;;;;;5.20;3.45;;;31.20;1.00;;;;;;5049143;28;20180;-74
2023/09/04 10:35:58;;;;;;;6.10;3.70;;;31.10;1.00;;;;;;5053253;28;20647;-74
2023/09/04 10:38:25;;;;;;;4.07;3.45;;;29.30;99.90;;;;;;5052871;28;20179;-74
2023/09/04 10:40:51;;;;;;;6.63;3.75;;;30.00;99.90;;;;;;5035467;28;20256;-74
2023/09/04 10:43:17;;;;;;;4.57;3.72;;;30.80;1.00;;;;;;5050026;28;20220;-74
2023/09/04 10:46:02;;;;;;;3.50;2.92;;;30.60;31.40;;;;;;5052907;28;20200;-74
2023/09/04 10:48:45;;;;;;;11.43;4.05;;;29.90;99.90;;;;;;5051474;28;20208;-74
2023/09/04 10:51:33;;;;;;;5.90;3.45;;;29.30;1.00;;;;;;5051320;28;20230;-74
2023/09/04 10:54:01;;;;;;;4.35;3.40;;;29.30;1.00;;;;;;5040307;28;20180;-74
2023/09/04 10:56:27;;;;;;;4.68;3.20;;;30.40;1.00;;;;;;5033243;28;20177;-74
2023/09/04 10:59:05;;;;;;;3.38;3.08;;;32.90;1.00;;;;;;5032565;28;20268;-74
2023/09/04 11:01:34;;;;;;;3.63;3.00;;;31.70;1.00;;;;;;5033224;28;20264;-74
2023/09/04 11:04:02;;;;;;;3.25;2.85;;;32.30;1.00;;;;;;5032991;28;20177;-72
2023/09/04 11:06:27;;;;;;;5.68;3.28;;;32.00;1.00;;;;;;5033883;28;20231;-73
2023/09/04 11:08:53;;;;;;;3.33;2.80;;;31.90;1.00;;;;;;5032979;28;20177;-73
2023/09/04 11:11:26;;;;;;;6.80;3.22;;;31.30;1.00;;;;;;5032928;28;20182;-73
2023/09/04 11:14:10;;;;;;;3.35;2.95;;;31.80;1.00;;;;;;5032571;28;20183;-74
2023/09/04 11:16:40;;;;;;;6.57;2.88;;;32.70;1.00;;;;;;5032335;28;20664;-74
2023/09/04 11:19:18;;;;;;;4.95;2.92;;;32.10;1.00;;;;;;5036397;28;20181;-73
2023/09/04 11:21:45;;;;;;;4.90;2.90;;;33.70;1.00;;;;;;5031968;28;20195;-74
2023/09/04 11:24:10;;;;;;;4.05;2.60;;;33.20;1.00;;;;;;5042583;28;20183;-74
2023/09/04 11:26:37;;;;;;;8.48;2.67;;;;;;;;;;5049642;28;20189;-73
2023/09/04 11:29:04;;;;;;;3.10;2.28;;;33.70;1.00;;;;;;5052492;28;20180;-74
2023/09/04 11:31:31;;;;;;;2.63;2.40;;;33.80;1.00;;;;;;5052502;28;20177;-74
2023/09/04 11:33:58;;;;;;;3.65;2.38;;;32.90;1.00;;;;;;5045313;28;20173;-74
2023/09/04 11:36:25;;;;;;;4.10;2.40;;;32.70;1.00;;;;;;5046113;28;20189;-74
2023/09/04 11:39:06;;;;;;;2.95;2.30;;;32.60;99.90;;;;;;5051147;28;20170;-74
2023/09/04 11:41:32;;;;;;;2.72;2.00;;;30.90;1.00;;;;;;5048854;28;20199;-73
2023/09/04 11:43:58;;;;;;;3.20;2.33;;;;;;;;;;5047928;28;20671;-74
2023/09/04 11:46:25;;;;;;;3.55;2.30;;;32.20;1.00;;;;;;5044724;28;20183;-74
2023/09/04 11:48:50;;;;;;;2.95;2.25;;;33.50;1.00;;;;;;5050255;28;20239;-74
2023/09/04 11:51:16;;;;;;;7.88;2.10;;;;;;;;;;5052999;28;20169;-74
2023/09/04 11:53:45;;;;;;;3.03;2.08;;;33.70;99.90;;;;;;5049344;28;20713;-75
2023/09/04 11:56:11;;;;;;;3.03;2.15;;;34.90;1.00;;;;;;5051810;28;20168;-74
2023/09/04 11:58:37;;;;;;;3.67;2.40;;;35.70;99.90;;;;;;5051949;28;20188;-74
2023/09/04 12:01:02;;;;;;;2.22;2.03;;;34.80;11.50;;;;;;5048019;28;20191;-75
2023/09/04 12:03:28;;;;;;;4.70;2.42;;;35.20;99.90;;;;;;5050247;28;20213;-74
2023/09/04 12:05:55;;;;;;;3.40;2.30;;;34.60;1.00;;;;;;5051346;28;20604;-74
2023/09/04 12:08:21;;;;;;;5.07;2.33;;;35.30;99.90;;;;;;5049102;28;20718;-74
2023/09/04 12:10:51;;;;;;;2.95;2.10;;;35.50;1.00;;;;;;5039300;28;20184;-73
2023/09/04 12:13:17;;;;;;;2.25;2.00;;;36.00;1.00;;;;;;5039127;28;20185;-73
2023/09/04 12:15:42;;;;;;;4.30;2.40;;;35.80;35.00;;;;;;5043679;28;20203;-75
2023/09/04 12:18:10;;;;;;;2.33;1.95;;;36.50;1.00;;;;;;5051734;28;20518;-73
2023/09/04 12:20:40;;;;;;;2.80;2.10;;;36.10;1.00;;;;;;5051566;28;20172;-74
2023/09/04 12:23:06;;;;;;;3.25;2.03;;;36.10;1.00;;;;;;5049488;28;20180;-74
2023/09/04 12:25:39;;;;;;;2.17;1.98;;;36.00;99.90;;;;;;5042084;28;20222;-74
2023/09/04 12:28:06;;;;;;;3.45;2.33;;;35.70;1.00;;;;;;5050878;28;20694;-74
2023/09/04 12:30:36;;;;;;;1.88;1.40;;;36.20;99.90;;;;;;5051355;28;20165;-74
2023/09/04 12:33:04;;;;;;;2.90;2.10;;;36.80;99.90;;;;;;5045198;28;20173;-73
2023/09/04 12:35:31;;;;;;;2.72;1.77;;;36.00;99.90;;;;;;5031283;28;20165;-74
2023/09/04 12:37:58;;;;;;;3.42;2.28;;;36.00;99.90;;;;;;5030649;28;20647;-74
2023/09/04 12:40:23;;;;;;;1.95;1.65;;;36.70;99.90;;;;;;5031027;28;20655;-74
2023/09/04 12:42:49;;;;;;;3.33;2.00;;;36.90;1.00;;;;;;5036478;28;20212;-74
2023/09/04 12:45:14;;;;;;;5.00;2.00;;;36.90;1.00;;;;;;5031024;28;20180;-73